createdAt,value
2018-08-28T00:00:22.431Z,17.70
2018-08-28T00:02:50.657Z,17.70
2018-08-28T00:05:18.870Z,17.60
2018-08-28T00:07:47.086Z,17.50
2018-08-28T00:10:15.307Z,17.50
2018-08-28T00:12:43.612Z,17.60
2018-08-28T00:15:11.813Z,17.50
2018-08-28T00:17:40.129Z,17.40
2018-08-28T00:20:08.338Z,17.40
2018-08-28T00:22:36.588Z,17.50
2018-08-28T00:25:04.811Z,17.40
2018-08-28T00:27:33.019Z,17.30
2018-08-28T00:30:01.246Z,17.20
2018-08-28T00:32:29.472Z,17.30
2018-08-28T00:34:57.708Z,17.20
2018-08-28T00:37:25.927Z,17.00
2018-08-28T00:39:54.149Z,16.90
2018-08-28T00:42:22.445Z,16.90
2018-08-28T00:44:50.684Z,16.80
2018-08-28T00:47:18.918Z,16.80
2018-08-28T00:49:47.167Z,16.90
2018-08-28T00:52:15.420Z,17.10
2018-08-28T00:54:43.608Z,17.20
2018-08-28T00:57:11.822Z,17.10
2018-08-28T00:59:40.051Z,17.00
2018-08-28T01:02:08.265Z,17.00
2018-08-28T01:04:36.578Z,17.00
2018-08-28T01:07:05.335Z,17.00
2018-08-28T01:09:33.566Z,17.00
2018-08-28T01:12:01.782Z,17.00
2018-08-28T01:14:30.037Z,17.00
2018-08-28T01:16:58.254Z,16.90
2018-08-28T01:19:26.471Z,17.00
2018-08-28T01:21:54.682Z,16.90
2018-08-28T01:24:22.892Z,16.90
2018-08-28T01:26:51.125Z,16.80
2018-08-28T01:29:19.349Z,16.70
2018-08-28T01:31:47.574Z,16.70
2018-08-28T01:34:15.819Z,16.70
2018-08-28T01:36:44.036Z,16.60
2018-08-28T01:39:12.250Z,16.80
2018-08-28T01:41:40.463Z,16.90
2018-08-28T01:44:08.691Z,16.70
2018-08-28T01:46:36.914Z,16.70
2018-08-28T01:49:05.317Z,16.60
2018-08-28T01:51:33.525Z,16.50
2018-08-28T01:54:01.747Z,16.40
2018-08-28T01:56:29.959Z,16.40
2018-08-28T01:58:58.212Z,16.50
2018-08-28T02:01:26.408Z,16.70
2018-08-28T02:03:54.637Z,16.70
2018-08-28T02:06:22.853Z,16.60
2018-08-28T02:08:51.071Z,16.60
2018-08-28T02:11:19.281Z,16.60
2018-08-28T02:13:47.496Z,16.50
2018-08-28T02:16:15.723Z,16.40
2018-08-28T02:18:43.932Z,16.30
2018-08-28T02:21:12.154Z,16.30
2018-08-28T02:23:40.366Z,16.30
2018-08-28T02:26:08.581Z,16.30
2018-08-28T02:28:36.854Z,16.30
2018-08-28T02:31:05.078Z,16.40
2018-08-28T02:33:33.430Z,16.40
2018-08-28T02:36:01.893Z,16.40
2018-08-28T02:38:30.095Z,16.50
2018-08-28T02:40:58.303Z,16.60
2018-08-28T02:43:26.518Z,16.60
2018-08-28T02:45:54.735Z,16.40
2018-08-28T02:48:22.941Z,16.40
2018-08-28T02:50:51.156Z,16.40
2018-08-28T02:53:19.370Z,16.40
2018-08-28T02:55:47.582Z,16.60
2018-08-28T02:58:15.811Z,16.70
2018-08-28T03:00:44.039Z,16.90
2018-08-28T03:03:12.249Z,16.60
2018-08-28T03:05:40.482Z,16.60
2018-08-28T03:08:08.690Z,16.50
2018-08-28T03:10:36.931Z,16.50
2018-08-28T03:13:05.146Z,16.40
2018-08-28T03:15:33.399Z,16.40
2018-08-28T03:18:01.624Z,16.40
2018-08-28T03:20:29.855Z,16.60
2018-08-28T03:22:58.064Z,16.30
2018-08-28T03:25:26.303Z,16.20
2018-08-28T03:27:54.519Z,16.10
2018-08-28T03:30:22.744Z,16.00
2018-08-28T03:32:50.978Z,16.00
2018-08-28T03:35:19.170Z,16.10
2018-08-28T03:37:47.385Z,16.00
2018-08-28T03:40:15.614Z,15.90
2018-08-28T03:42:43.844Z,15.80
2018-08-28T03:45:12.047Z,15.80
2018-08-28T03:47:40.263Z,15.70
2018-08-28T03:50:08.475Z,15.70
2018-08-28T03:52:36.689Z,15.80
2018-08-28T03:55:04.893Z,16.00
2018-08-28T03:57:33.123Z,15.90
2018-08-28T04:00:01.340Z,15.80
2018-08-28T04:02:29.568Z,15.80
2018-08-28T04:04:57.786Z,15.80
2018-08-28T04:07:26.013Z,15.90
2018-08-28T04:09:54.221Z,16.00
2018-08-28T04:12:22.450Z,15.80
2018-08-28T04:14:50.650Z,15.80
2018-08-28T04:17:18.882Z,15.80
2018-08-28T04:19:47.083Z,15.80
2018-08-28T04:22:15.307Z,15.80
2018-08-28T04:24:43.511Z,15.70
2018-08-28T04:27:11.727Z,15.80
2018-08-28T04:29:39.937Z,15.80
2018-08-28T04:32:08.158Z,15.60
2018-08-28T04:34:36.476Z,15.50
2018-08-28T04:37:04.680Z,15.50
2018-08-28T04:39:32.886Z,15.50
2018-08-28T04:42:01.161Z,15.50
2018-08-28T04:44:29.326Z,15.40
2018-08-28T04:46:57.578Z,15.50
2018-08-28T04:49:25.782Z,15.50
2018-08-28T04:51:54.011Z,15.70
2018-08-28T04:54:22.285Z,16.00
2018-08-28T04:56:50.466Z,16.10
2018-08-28T04:59:18.691Z,16.00
2018-08-28T05:01:46.902Z,15.80
2018-08-28T05:04:15.125Z,15.60
2018-08-28T05:06:43.351Z,15.50
2018-08-28T05:09:11.570Z,15.40
2018-08-28T05:11:39.802Z,15.40
2018-08-28T05:14:08.032Z,15.40
2018-08-28T05:16:36.238Z,15.40
2018-08-28T05:19:04.461Z,15.50
2018-08-28T05:21:32.678Z,15.50
2018-08-28T05:24:00.894Z,15.50
2018-08-28T05:26:29.133Z,15.50
2018-08-28T05:28:57.365Z,15.70
2018-08-28T05:31:25.574Z,15.60
2018-08-28T05:33:53.810Z,15.60
2018-08-28T05:36:22.015Z,15.60
2018-08-28T05:38:50.238Z,15.60
2018-08-28T05:41:18.453Z,15.60
2018-08-28T05:43:46.665Z,15.70
2018-08-28T05:46:14.870Z,15.80
2018-08-28T05:48:43.099Z,15.70
2018-08-28T05:51:11.313Z,15.80
2018-08-28T05:53:39.537Z,15.80
2018-08-28T05:56:08.395Z,15.80
2018-08-28T05:58:36.618Z,15.80
2018-08-28T06:01:04.870Z,15.90
2018-08-28T06:03:33.474Z,15.90
2018-08-28T06:06:01.670Z,16.00
2018-08-28T06:08:29.913Z,15.90
2018-08-28T06:10:58.152Z,15.90
2018-08-28T06:13:26.350Z,16.00
2018-08-28T06:15:54.580Z,16.10
2018-08-28T06:18:23.194Z,16.30
2018-08-28T06:20:51.424Z,16.40
2018-08-28T06:23:19.648Z,16.50
2018-08-28T06:25:47.866Z,16.60
2018-08-28T06:28:16.081Z,16.60
2018-08-28T06:30:44.306Z,16.70
2018-08-28T06:33:12.544Z,16.80
2018-08-28T06:35:40.766Z,16.90
2018-08-28T06:38:08.987Z,17.00
2018-08-28T06:40:37.210Z,17.10
2018-08-28T06:43:05.626Z,17.20
2018-08-28T06:45:33.862Z,17.50
2018-08-28T06:48:02.066Z,17.60
2018-08-28T06:50:30.299Z,17.50
2018-08-28T06:52:58.512Z,17.60
2018-08-28T06:55:26.726Z,17.80
2018-08-28T06:57:54.946Z,17.90
2018-08-28T07:00:23.165Z,18.00
2018-08-28T07:02:51.376Z,18.00
2018-08-28T07:05:19.605Z,18.20
2018-08-28T07:07:47.829Z,18.40
2018-08-28T07:10:16.107Z,18.50
2018-08-28T07:12:44.267Z,18.50
2018-08-28T07:15:12.497Z,18.60
2018-08-28T07:17:40.742Z,18.60
2018-08-28T07:20:08.966Z,18.70
2018-08-28T07:22:37.172Z,18.80
2018-08-28T07:25:05.832Z,18.90
2018-08-28T07:27:34.055Z,19.00
2018-08-28T07:30:02.271Z,19.00
2018-08-28T07:32:30.493Z,19.00
2018-08-28T07:34:58.719Z,19.10
2018-08-28T07:37:26.975Z,19.20
2018-08-28T07:39:55.158Z,19.20
2018-08-28T07:42:23.374Z,19.40
2018-08-28T07:44:51.584Z,19.60
2018-08-28T07:47:19.814Z,19.70
2018-08-28T07:49:48.043Z,19.80
2018-08-28T07:52:16.279Z,19.80
2018-08-28T07:54:44.499Z,19.80
2018-08-28T07:57:12.750Z,19.80
2018-08-28T07:59:40.991Z,19.80
2018-08-28T08:02:09.218Z,20.00
2018-08-28T08:04:37.414Z,20.20
2018-08-28T08:07:06.035Z,20.50
2018-08-28T08:09:34.249Z,21.00
2018-08-28T08:12:02.510Z,21.60
2018-08-28T08:14:30.750Z,22.10
2018-08-28T08:16:58.991Z,22.50
2018-08-28T08:19:27.227Z,23.00
2018-08-28T08:21:55.437Z,23.30
2018-08-28T08:24:23.653Z,23.50
2018-08-28T08:26:51.893Z,23.80
2018-08-28T08:29:20.117Z,24.00
2018-08-28T08:31:48.355Z,24.10
2018-08-28T08:34:16.584Z,24.10
2018-08-28T08:36:44.798Z,24.20
2018-08-28T08:39:13.023Z,24.30
2018-08-28T08:41:41.233Z,24.40
2018-08-28T08:44:09.450Z,24.50
2018-08-28T08:46:37.678Z,24.60
2018-08-28T08:49:05.902Z,24.60
2018-08-28T08:51:34.119Z,24.70
2018-08-28T08:54:02.356Z,24.70
2018-08-28T08:56:30.556Z,24.90
2018-08-28T08:58:58.777Z,25.20
2018-08-28T09:01:26.994Z,25.10
2018-08-28T09:03:55.206Z,25.20
2018-08-28T09:06:23.430Z,25.30
2018-08-28T09:08:51.647Z,25.40
2018-08-28T09:11:19.868Z,25.60
2018-08-28T09:13:48.095Z,25.90
2018-08-28T09:16:16.308Z,26.00
2018-08-28T09:18:44.543Z,25.90
2018-08-28T09:21:12.756Z,26.20
2018-08-28T09:23:41.049Z,26.20
2018-08-28T09:26:09.267Z,26.20
2018-08-28T09:28:37.503Z,26.30
2018-08-28T09:31:05.782Z,26.50
2018-08-28T09:33:33.981Z,26.60
2018-08-28T09:36:02.208Z,26.60
2018-08-28T09:38:31.353Z,26.60
2018-08-28T09:40:59.474Z,26.60
2018-08-28T09:43:27.715Z,26.90
2018-08-28T09:45:55.973Z,27.20
2018-08-28T09:48:24.253Z,27.20
2018-08-28T09:50:52.453Z,27.10
2018-08-28T09:53:20.611Z,27.10
2018-08-28T09:55:48.826Z,27.30
2018-08-28T09:58:17.047Z,27.50
2018-08-28T10:00:50.681Z,27.50
2018-08-28T10:03:18.918Z,27.40
2018-08-28T10:05:47.142Z,27.50
2018-08-28T10:08:15.355Z,27.40
2018-08-28T10:10:43.848Z,27.60
2018-08-28T10:13:12.061Z,27.80
2018-08-28T10:15:40.306Z,28.00
2018-08-28T10:18:08.533Z,28.20
2018-08-28T10:20:36.769Z,28.20
2018-08-28T10:23:05.047Z,28.40
2018-08-28T10:25:36.275Z,28.50
2018-08-28T10:28:04.577Z,28.60
2018-08-28T10:30:32.862Z,28.80
2018-08-28T10:33:01.067Z,28.80
2018-08-28T10:35:29.296Z,29.00
2018-08-28T10:37:57.620Z,28.80
2018-08-28T10:40:25.785Z,29.10
2018-08-28T10:42:54.010Z,29.30
2018-08-28T10:45:22.235Z,29.20
2018-08-28T10:47:50.438Z,29.30
2018-08-28T10:50:18.675Z,29.30
2018-08-28T10:52:46.959Z,29.40
2018-08-28T10:55:15.138Z,29.40
2018-08-28T10:57:43.378Z,29.50
2018-08-28T11:00:11.627Z,29.60
2018-08-28T11:02:39.851Z,29.70
2018-08-28T11:05:08.089Z,29.90
2018-08-28T11:07:36.308Z,30.10
2018-08-28T11:10:04.555Z,30.20
2018-08-28T11:12:32.772Z,30.30
2018-08-28T11:15:01.012Z,30.50
2018-08-28T11:17:29.222Z,30.50
2018-08-28T11:19:57.558Z,30.50
2018-08-28T11:22:26.180Z,30.40
2018-08-28T11:24:54.428Z,30.40
2018-08-28T11:27:22.635Z,30.30
2018-08-28T11:29:50.872Z,30.20
2018-08-28T11:32:19.100Z,30.20
2018-08-28T11:34:47.322Z,30.20
2018-08-28T11:37:15.538Z,30.00
2018-08-28T11:39:43.775Z,29.90
2018-08-28T11:42:12.009Z,30.00
2018-08-28T11:44:40.247Z,30.10
2018-08-28T11:47:08.513Z,30.10
2018-08-28T11:49:36.755Z,29.90
2018-08-28T11:52:05.007Z,29.70
2018-08-28T11:54:33.210Z,29.60
2018-08-28T11:57:01.442Z,29.50
2018-08-28T11:59:29.663Z,29.50
2018-08-28T12:01:57.912Z,29.40
2018-08-28T12:04:26.114Z,29.40
2018-08-28T12:06:54.599Z,29.30
2018-08-28T12:09:22.575Z,29.30
2018-08-28T12:11:50.827Z,29.00
2018-08-28T12:14:19.062Z,28.80
2018-08-28T12:16:47.298Z,28.80
2018-08-28T12:19:15.523Z,28.90
2018-08-28T12:21:43.763Z,28.80
2018-08-28T12:24:11.977Z,28.60
2018-08-28T12:26:40.253Z,28.40
2018-08-28T12:29:08.451Z,28.30
2018-08-28T12:31:36.681Z,28.20
2018-08-28T12:34:04.935Z,28.20
2018-08-28T12:36:33.183Z,28.10
2018-08-28T12:39:01.386Z,28.20
2018-08-28T12:41:29.615Z,28.10
2018-08-28T12:43:57.878Z,28.10
2018-08-28T12:46:26.094Z,28.00
2018-08-28T12:48:54.353Z,28.00
2018-08-28T12:51:22.733Z,27.90
2018-08-28T12:53:50.815Z,27.80
2018-08-28T12:56:19.043Z,27.80
2018-08-28T12:58:47.286Z,27.70
2018-08-28T13:01:15.481Z,27.60
2018-08-28T13:03:43.725Z,27.60
2018-08-28T13:06:12.028Z,27.60
2018-08-28T13:08:40.286Z,27.60
2018-08-28T13:11:08.549Z,27.50
2018-08-28T13:13:36.777Z,27.40
2018-08-28T13:16:05.046Z,27.40
2018-08-28T13:18:33.285Z,27.30
2018-08-28T13:21:01.521Z,27.30
2018-08-28T13:23:29.762Z,27.40
2018-08-28T13:25:58.099Z,27.40
2018-08-28T13:28:26.247Z,27.40
2018-08-28T13:30:54.506Z,27.20
2018-08-28T13:33:22.865Z,27.20
2018-08-28T13:35:51.098Z,27.10
2018-08-28T13:38:19.331Z,27.00
2018-08-28T13:40:47.708Z,27.00
2018-08-28T13:43:15.823Z,26.90
2018-08-28T13:45:44.377Z,26.90
2018-08-28T13:48:12.743Z,26.90
2018-08-28T13:50:40.989Z,26.90
2018-08-28T13:53:09.220Z,26.90
2018-08-28T13:55:37.449Z,26.90
2018-08-28T13:58:05.694Z,27.00
2018-08-28T14:00:33.914Z,27.00
2018-08-28T14:03:02.168Z,27.00
2018-08-28T14:05:30.389Z,27.00
2018-08-28T14:07:58.639Z,27.00
2018-08-28T14:10:26.883Z,27.00
2018-08-28T14:12:55.145Z,27.00
2018-08-28T14:15:23.366Z,27.10
2018-08-28T14:17:51.604Z,27.10
2018-08-28T14:20:19.824Z,27.10
2018-08-28T14:22:48.090Z,27.10
2018-08-28T14:25:16.324Z,27.00
2018-08-28T14:27:44.562Z,27.00
2018-08-28T14:30:12.815Z,26.90
2018-08-28T14:32:41.041Z,26.90
2018-08-28T14:35:09.269Z,26.90
2018-08-28T14:37:37.498Z,26.90
2018-08-28T14:40:06.030Z,26.90
2018-08-28T14:42:34.371Z,26.80
2018-08-28T14:45:02.534Z,26.80
2018-08-28T14:47:30.762Z,26.70
2018-08-28T14:49:59.028Z,26.70
2018-08-28T14:52:27.267Z,26.70
2018-08-28T14:54:55.503Z,26.60
2018-08-28T14:57:23.732Z,26.60
2018-08-28T14:59:51.966Z,26.60
2018-08-28T15:02:20.195Z,26.60
2018-08-28T15:04:48.446Z,26.60
2018-08-28T15:07:16.710Z,26.60
2018-08-28T15:09:44.941Z,26.60
2018-08-28T15:12:13.163Z,26.60
2018-08-28T15:14:41.411Z,26.60
2018-08-28T15:17:09.643Z,26.60
2018-08-28T15:19:37.875Z,26.60
2018-08-28T15:22:06.114Z,26.60
2018-08-28T15:24:34.347Z,26.50
2018-08-28T15:27:02.629Z,26.50
2018-08-28T15:29:30.808Z,26.50
2018-08-28T15:31:59.023Z,26.50
2018-08-28T15:34:27.270Z,26.50
2018-08-28T15:36:55.499Z,26.40
2018-08-28T15:39:23.746Z,26.40
2018-08-28T15:41:51.967Z,26.40
2018-08-28T15:44:20.195Z,26.40
2018-08-28T15:46:48.446Z,26.30
2018-08-28T15:49:16.670Z,26.30
2018-08-28T15:51:44.930Z,26.30
2018-08-28T15:54:13.158Z,26.30
2018-08-28T15:56:41.387Z,26.30
2018-08-28T15:59:09.706Z,26.30
2018-08-28T16:01:37.884Z,26.20
2018-08-28T16:04:06.169Z,26.20
2018-08-28T16:06:34.408Z,26.20
2018-08-28T16:09:02.682Z,26.10
2018-08-28T16:11:30.911Z,26.10
2018-08-28T16:13:59.151Z,26.10
2018-08-28T16:16:27.402Z,26.10
2018-08-28T16:18:55.634Z,26.10
2018-08-28T16:21:27.746Z,26.10
2018-08-28T16:23:55.979Z,26.10
2018-08-28T16:26:24.214Z,26.10
2018-08-28T16:28:52.443Z,26.10
2018-08-28T16:31:20.692Z,26.10
2018-08-28T16:33:48.956Z,26.10
2018-08-28T16:36:17.190Z,26.00
2018-08-28T16:38:45.425Z,26.00
2018-08-28T16:41:13.718Z,25.90
2018-08-28T16:43:41.884Z,25.90
2018-08-28T16:46:10.146Z,25.90
2018-08-28T16:48:38.374Z,25.80
2018-08-28T16:51:06.616Z,25.80
2018-08-28T16:53:34.863Z,25.70
2018-08-28T16:56:03.092Z,25.70
2018-08-28T16:58:31.343Z,25.60
2018-08-28T17:00:59.585Z,25.60
2018-08-28T17:03:27.804Z,25.60
2018-08-28T17:05:56.031Z,25.60
2018-08-28T17:08:24.284Z,25.50
2018-08-28T17:10:52.527Z,25.40
2018-08-28T17:13:20.763Z,25.40
2018-08-28T17:15:48.998Z,25.30
2018-08-28T17:18:17.253Z,25.30
2018-08-28T17:20:45.473Z,25.20
2018-08-28T17:23:13.689Z,25.10
2018-08-28T17:25:41.905Z,25.00
2018-08-28T17:28:10.135Z,25.00
2018-08-28T17:30:38.362Z,24.90
2018-08-28T17:33:06.623Z,24.90
2018-08-28T17:35:34.854Z,24.80
2018-08-28T17:38:03.090Z,24.70
2018-08-28T17:40:31.323Z,24.70
2018-08-28T17:42:59.559Z,24.60
2018-08-28T17:45:27.766Z,24.50
2018-08-28T17:47:55.994Z,24.40
2018-08-28T17:50:24.218Z,24.30
2018-08-28T17:52:52.441Z,24.30
2018-08-28T17:55:20.660Z,24.20
2018-08-28T17:57:48.890Z,24.10
2018-08-28T18:00:17.114Z,24.00
2018-08-28T18:02:45.341Z,23.90
2018-08-28T18:05:13.562Z,23.80
2018-08-28T18:07:41.790Z,23.80
2018-08-28T18:10:09.995Z,23.70
2018-08-28T18:12:38.233Z,23.70
2018-08-28T18:15:07.127Z,23.90
2018-08-28T18:17:35.349Z,24.10
2018-08-28T18:20:03.578Z,24.10
2018-08-28T18:22:31.822Z,24.00
2018-08-28T18:25:00.417Z,23.90
2018-08-28T18:30:03.243Z,23.70
2018-08-28T18:32:31.491Z,23.60
2018-08-28T18:34:59.729Z,23.50
2018-08-28T18:37:27.933Z,23.40
2018-08-28T18:39:56.158Z,23.30
2018-08-28T18:42:24.377Z,23.30
2018-08-28T18:44:52.602Z,23.10
2018-08-28T18:47:20.825Z,23.00
2018-08-28T18:49:49.042Z,22.90
2018-08-28T18:52:17.259Z,23.00
2018-08-28T18:54:45.500Z,22.90
2018-08-28T18:57:13.751Z,22.90
2018-08-28T18:59:41.975Z,22.80
2018-08-28T19:02:10.207Z,22.60
2018-08-28T19:04:38.474Z,22.50
2018-08-28T19:07:06.698Z,22.60
2018-08-28T19:09:34.941Z,22.50
2018-08-28T19:12:03.175Z,22.40
2018-08-28T19:14:31.460Z,22.50
2018-08-28T19:16:59.632Z,22.50
2018-08-28T19:19:27.861Z,22.30
2018-08-28T19:21:56.079Z,22.10
2018-08-28T19:24:24.307Z,22.00
2018-08-28T19:26:52.527Z,22.00
2018-08-28T19:29:20.770Z,21.90
2018-08-28T19:31:49.021Z,21.90
2018-08-28T19:34:17.287Z,21.70
2018-08-28T19:36:45.523Z,21.60
2018-08-28T19:39:13.768Z,21.50
2018-08-28T19:41:42.020Z,21.50
2018-08-28T19:44:10.279Z,21.40
2018-08-28T19:46:38.499Z,21.40
2018-08-28T19:49:06.719Z,21.30
2018-08-28T19:51:34.939Z,21.20
2018-08-28T19:54:03.166Z,21.20
2018-08-28T19:56:31.370Z,21.10
2018-08-28T19:58:59.600Z,21.10
2018-08-28T20:01:27.830Z,21.10
2018-08-28T20:03:56.099Z,21.10
2018-08-28T20:06:24.298Z,21.10
2018-08-28T20:08:52.533Z,21.10
2018-08-28T20:11:20.783Z,21.00
2018-08-28T20:13:49.014Z,21.00
2018-08-28T20:16:17.240Z,20.90
2018-08-28T20:18:45.452Z,20.80
2018-08-28T20:21:13.687Z,20.70
2018-08-28T20:23:41.940Z,20.60
2018-08-28T20:26:10.163Z,20.40
2018-08-28T20:28:38.391Z,20.50
2018-08-28T20:31:06.619Z,20.40
2018-08-28T20:33:34.854Z,20.40
2018-08-28T20:36:03.092Z,20.20
2018-08-28T20:38:31.311Z,20.20
2018-08-28T20:40:59.555Z,20.00
2018-08-28T20:43:27.795Z,20.00
2018-08-28T20:45:56.027Z,19.90
2018-08-28T20:48:24.269Z,19.70
2018-08-28T20:50:52.501Z,19.60
2018-08-28T20:53:20.727Z,19.50
2018-08-28T20:55:48.958Z,19.50
2018-08-28T20:58:17.216Z,19.40
2018-08-28T21:00:45.430Z,19.40
2018-08-28T21:03:13.652Z,19.40
2018-08-28T21:05:41.879Z,19.40
2018-08-28T21:08:10.097Z,19.30
2018-08-28T21:10:38.334Z,19.20
2018-08-28T21:13:06.565Z,19.10
2018-08-28T21:15:34.798Z,19.10
2018-08-28T21:18:03.006Z,19.00
2018-08-28T21:20:31.231Z,18.90
2018-08-28T21:22:59.506Z,18.90
2018-08-28T21:25:27.691Z,18.90
2018-08-28T21:27:55.903Z,19.00
2018-08-28T21:30:24.138Z,19.00
2018-08-28T21:32:52.361Z,18.90
2018-08-28T21:35:20.600Z,19.00
2018-08-28T21:37:48.828Z,18.90
2018-08-28T21:40:17.057Z,18.80
2018-08-28T21:42:45.275Z,18.70
2018-08-28T21:45:13.509Z,18.60
2018-08-28T21:47:41.734Z,18.60
2018-08-28T21:50:09.959Z,18.50
2018-08-28T21:52:38.178Z,18.40
2018-08-28T21:55:06.407Z,18.50
2018-08-28T21:57:34.632Z,18.40
2018-08-28T22:00:02.853Z,18.30
2018-08-28T22:02:31.080Z,18.20
2018-08-28T22:04:59.307Z,18.20
2018-08-28T22:07:32.950Z,18.30
2018-08-28T22:10:01.156Z,18.30
2018-08-28T22:12:29.468Z,18.30
2018-08-28T22:14:57.669Z,18.50
2018-08-28T22:17:25.899Z,18.40
2018-08-28T22:19:54.124Z,18.30
2018-08-28T22:22:22.324Z,18.40
2018-08-28T22:24:50.491Z,18.40
2018-08-28T22:27:18.694Z,18.30
2018-08-28T22:29:46.878Z,18.20
2018-08-28T22:32:15.066Z,18.10
2018-08-28T22:34:43.258Z,17.90
2018-08-28T22:37:11.445Z,17.80
2018-08-28T22:39:39.634Z,17.60
2018-08-28T22:42:07.829Z,17.50
2018-08-28T22:44:36.011Z,17.40
2018-08-28T22:47:04.207Z,17.50
2018-08-28T22:49:32.379Z,17.70
2018-08-28T22:52:00.579Z,17.80
2018-08-28T22:54:28.774Z,17.70
2018-08-28T22:56:56.967Z,17.80
2018-08-28T22:59:25.168Z,17.80
2018-08-28T23:01:53.359Z,17.90
2018-08-28T23:04:21.541Z,17.70
2018-08-28T23:06:49.739Z,17.60
2018-08-28T23:09:17.928Z,17.50
2018-08-28T23:11:46.150Z,17.40
2018-08-28T23:14:14.342Z,17.40
2018-08-28T23:16:42.529Z,17.40
2018-08-28T23:19:10.714Z,17.60
2018-08-28T23:21:38.900Z,17.40
2018-08-28T23:24:07.090Z,17.40
2018-08-28T23:26:35.270Z,17.40
2018-08-28T23:29:03.455Z,17.30
2018-08-28T23:31:31.639Z,17.30
2018-08-28T23:33:59.834Z,17.30
2018-08-28T23:36:28.023Z,17.20
2018-08-28T23:38:56.209Z,17.00
2018-08-28T23:41:24.398Z,17.00
2018-08-28T23:43:52.612Z,16.90
2018-08-28T23:46:20.809Z,16.80
2018-08-28T23:48:49.003Z,16.90
2018-08-28T23:51:17.178Z,16.90
2018-08-28T23:53:45.372Z,17.00
2018-08-28T23:56:13.535Z,17.10
2018-08-28T23:58:41.736Z,17.00
